Aérodrome :
LOGIN :

S'inscrire | Disclaimer

   EN    FR    IT 

 










Légende :    VFR   VFR Marginal   IFR   IFR Intensif   IFR Très Intensif
Visi : 
Plafond : 
>= 8 km
>= 3000ft
5 à 8 km
1000 à 3000 ft
1500m à 5 km
500 à 1000 ft
800 à 1500m
200 à 500 ft
< 800m
< 200 ft
Symboles :   Orages  Brouillard  Fortes neiges  Fortes précipitations  Vent > 20 kt
SIGMETs :   Divers  Orages  Givrage  Turbulence  Onde Orograph.  Cendres Volcan.







- Altitude de l'aérodrome : 268 ft
- Code IATA : BFS
- Voir les cartes d'approche


EGAA - Belfast Aldergrove

DERNIER METAR :
  • 200820Z 32004KT 9999 SCT027 09/08 Q1002

METARs EXPIRÉS :
  • 200750Z VRB03KT 9999 FEW010 SCT025 09/08 Q1002
  • 200720Z 30006KT 9999 SCT019 SCT025 09/08 Q1001
  • 200650Z 29008KT 9999 FEW012 BKN018 09/08 Q1001
  • 200620Z 29009KT 9999 SCT013 BKN026 10/08 Q1000
  • 200550Z 31009KT 9999 FEW020 BKN026 10/08 Q1000

TAF AMD TAF EGAA
Valide du 20 à 08h jusqu'au 21 à 06h UTC


200800Z 2008/2106 VRB05KT 9999 SCT020
BECMG 2011/2014 16010KT
BECMG 2017/2019 14020G30KT 7000 RA
PROB30
TEMPO 2018/2021 4000 +RA BKN010
BECMG 2020/2022 9999 NSW
TEMPO 2103/2106 4000 +SHRA BKN014
PROB30
TEMPO 2103/2106 13025G40KT
Pas de NOTAMs connus pour ce terrain.



MET'MAP, la Météo Aéronautique d'un coup d'oeil ! - Copyright ORBIFLY Décembre 2007 - Disclaimer

ORBIFLY MET'MAP TEAM :

Programmation & Développement : Alexandra Zaïnal
Conception & Développement : Baudouin d'Aumeries
Co-Programmation & Développement : Marc-Olivier Méhu
Soutien technique & logistique : Manuel Goepfert

Contact : metmap@orbifly.com




SOURCES & CREDITS :

   NOAA